createdAt,value
2018-02-13T00:01:22.387Z,15.47
2018-02-13T00:03:48.419Z,12.57
2018-02-13T00:06:14.421Z,8.10
2018-02-13T00:08:40.428Z,8.03
2018-02-13T00:11:06.507Z,8.30
2018-02-13T00:13:32.517Z,8.47
2018-02-13T00:15:59.013Z,8.80
2018-02-13T00:18:25.004Z,14.40
2018-02-13T00:20:50.985Z,8.30
2018-02-13T00:23:17.033Z,10.40
2018-02-13T00:25:43.048Z,8.13
2018-02-13T00:28:09.441Z,8.17
2018-02-13T00:30:35.500Z,12.83
2018-02-13T00:33:01.491Z,11.97
2018-02-13T00:35:27.457Z,9.50
2018-02-13T00:37:53.419Z,11.70
2018-02-13T00:40:19.504Z,12.20
2018-02-13T00:42:45.519Z,9.07
2018-02-13T00:45:11.922Z,9.73
2018-02-13T00:47:37.913Z,11.20
2018-02-13T00:50:03.988Z,8.43
2018-02-13T00:52:29.985Z,8.90
2018-02-13T00:54:55.965Z,9.93
2018-02-13T00:57:22.034Z,10.60
2018-02-13T00:59:48.068Z,12.40
2018-02-13T01:02:14.125Z,11.37
2018-02-13T01:04:40.159Z,9.63
2018-02-13T01:07:06.159Z,10.40
2018-02-13T01:09:32.485Z,10.30
2018-02-13T01:11:58.512Z,10.17
2018-02-13T01:14:24.553Z,11.23
2018-02-13T01:16:50.588Z,12.20
2018-02-13T01:19:16.579Z,11.20
2018-02-13T01:21:42.521Z,9.90
2018-02-13T01:24:08.513Z,12.07
2018-02-13T01:26:34.880Z,11.97
2018-02-13T01:29:00.893Z,15.03
2018-02-13T01:31:26.856Z,10.20
2018-02-13T01:33:52.877Z,13.63
2018-02-13T01:36:18.893Z,12.30
2018-02-13T01:38:44.905Z,13.80
2018-02-13T01:41:10.890Z,9.50
2018-02-13T01:43:37.363Z,13.00
2018-02-13T01:46:03.373Z,13.30
2018-02-13T01:48:29.349Z,13.87
2018-02-13T01:50:55.334Z,17.73
2018-02-13T01:53:21.553Z,20.73
2018-02-13T01:55:47.545Z,14.10
2018-02-13T01:58:13.585Z,20.60
2018-02-13T02:00:39.633Z,13.00
2018-02-13T02:03:05.592Z,10.97
2018-02-13T02:05:31.937Z,13.50
2018-02-13T02:07:57.907Z,12.10
2018-02-13T02:10:23.915Z,11.60
2018-02-13T02:12:49.997Z,17.03
2018-02-13T02:15:16.013Z,18.23
2018-02-13T02:17:42.029Z,18.90
2018-02-13T02:20:08.087Z,15.50
2018-02-13T02:22:34.433Z,23.07
2018-02-13T02:25:00.479Z,13.57
2018-02-13T02:27:26.482Z,17.20
2018-02-13T02:29:52.521Z,17.63
2018-02-13T02:32:18.473Z,14.70
2018-02-13T02:34:44.529Z,14.40
2018-02-13T02:37:10.520Z,11.70
2018-02-13T02:39:36.964Z,20.03
2018-02-13T02:42:03.005Z,12.87
2018-02-13T02:44:29.013Z,15.40
2018-02-13T02:46:55.031Z,15.10
2018-02-13T02:49:21.076Z,15.80
2018-02-13T02:51:47.116Z,13.70
2018-02-13T02:54:13.091Z,20.93
2018-02-13T02:56:39.453Z,19.70
2018-02-13T02:59:05.443Z,16.27
2018-02-13T03:01:31.440Z,18.23
2018-02-13T03:03:57.610Z,17.10
2018-02-13T03:06:23.605Z,17.50
2018-02-13T03:08:49.619Z,15.63
2018-02-13T03:11:15.623Z,21.67
2018-02-13T03:13:41.640Z,20.93
2018-02-13T03:16:07.639Z,16.60
2018-02-13T03:18:33.986Z,20.30
2018-02-13T03:20:59.961Z,20.77
2018-02-13T03:23:25.941Z,15.77
2018-02-13T03:25:52.002Z,19.40
2018-02-13T03:28:18.049Z,16.43
2018-02-13T03:30:44.018Z,16.93
2018-02-13T03:33:09.952Z,21.93
2018-02-13T03:35:35.976Z,15.10
2018-02-13T03:38:01.939Z,15.53
2018-02-13T03:40:27.971Z,16.10
2018-02-13T03:42:53.953Z,17.23
2018-02-13T03:45:19.950Z,17.57
2018-02-13T03:47:45.953Z,19.20
2018-02-13T03:50:11.983Z,16.23
2018-02-13T03:52:37.957Z,21.07
2018-02-13T03:55:03.969Z,16.13
2018-02-13T03:57:29.969Z,15.53
2018-02-13T03:59:55.979Z,15.57
2018-02-13T04:02:22.017Z,18.80
2018-02-13T04:04:48.076Z,18.60
2018-02-13T04:07:14.081Z,18.67
2018-02-13T04:09:40.091Z,18.40
2018-02-13T04:12:06.052Z,16.03
2018-02-13T04:14:32.653Z,19.17
2018-02-13T04:16:58.699Z,20.67
2018-02-13T04:19:24.681Z,16.03
2018-02-13T04:21:50.652Z,15.57
2018-02-13T04:24:16.680Z,20.17
2018-02-13T04:26:42.689Z,21.43
2018-02-13T04:29:08.727Z,17.33
2018-02-13T04:31:35.143Z,16.00
2018-02-13T04:34:01.136Z,19.27
2018-02-13T04:36:27.122Z,16.90
2018-02-13T04:38:53.181Z,16.20
2018-02-13T04:41:19.164Z,15.70
2018-02-13T04:43:45.170Z,16.47
2018-02-13T04:46:11.137Z,11.93
2018-02-13T04:48:37.453Z,25.37
2018-02-13T04:51:03.497Z,20.30
2018-02-13T04:53:29.473Z,19.43
2018-02-13T04:55:55.479Z,19.40
2018-02-13T04:58:21.472Z,16.70
2018-02-13T05:00:47.564Z,29.80
2018-02-13T05:03:13.569Z,20.03
2018-02-13T05:05:39.580Z,15.33
2018-02-13T05:08:05.578Z,17.70
2018-02-13T05:10:31.952Z,22.00
2018-02-13T05:12:57.973Z,29.13
2018-02-13T05:15:23.990Z,21.30
2018-02-13T05:17:49.996Z,24.50
2018-02-13T05:20:15.992Z,24.23
2018-02-13T05:22:41.966Z,23.50
2018-02-13T05:25:07.942Z,18.77
2018-02-13T05:27:33.940Z,18.83
2018-02-13T05:29:59.960Z,17.50
2018-02-13T05:32:26.019Z,22.07
2018-02-13T05:34:52.059Z,15.90
2018-02-13T05:37:18.108Z,22.20
2018-02-13T05:39:44.453Z,19.17
2018-02-13T05:42:10.488Z,17.83
2018-02-13T05:44:36.519Z,15.10
2018-02-13T05:47:02.491Z,16.50
2018-02-13T05:49:28.481Z,14.00
2018-02-13T05:51:54.501Z,19.70
2018-02-13T05:54:20.544Z,15.40
2018-02-13T05:56:46.940Z,17.33
2018-02-13T05:59:12.953Z,17.07
2018-02-13T06:01:38.896Z,13.23
2018-02-13T06:04:04.885Z,15.90
2018-02-13T06:06:30.909Z,15.73
2018-02-13T06:08:56.979Z,14.90
2018-02-13T06:11:22.946Z,18.37
2018-02-13T06:13:49.329Z,16.47
2018-02-13T06:16:15.316Z,21.27
2018-02-13T06:18:41.313Z,19.80
2018-02-13T06:21:07.349Z,15.10
2018-02-13T06:23:33.336Z,18.83
2018-02-13T06:25:59.356Z,19.87
2018-02-13T06:28:25.373Z,20.03
2018-02-13T06:30:51.729Z,16.93
2018-02-13T06:33:17.752Z,21.20
2018-02-13T06:35:43.735Z,22.20
2018-02-13T06:38:09.716Z,21.03
2018-02-13T06:40:35.753Z,19.53
2018-02-13T06:43:01.801Z,25.07
2018-02-13T06:45:27.828Z,27.03
2018-02-13T06:47:54.156Z,18.70
2018-02-13T06:50:20.104Z,20.03
2018-02-13T06:52:46.200Z,18.20
2018-02-13T06:55:12.205Z,24.40
2018-02-13T06:57:38.152Z,22.40
2018-02-13T07:00:04.260Z,19.97
2018-02-13T07:02:30.236Z,20.20
2018-02-13T07:04:56.253Z,19.73
2018-02-13T07:07:22.317Z,18.40
2018-02-13T07:09:48.616Z,21.53
2018-02-13T07:12:14.660Z,17.30
2018-02-13T07:14:40.657Z,19.70
2018-02-13T07:17:06.748Z,25.87
2018-02-13T07:19:32.737Z,18.73
2018-02-13T07:21:58.751Z,20.97
2018-02-13T07:24:24.820Z,20.60
2018-02-13T07:26:50.870Z,17.50
2018-02-13T07:29:16.902Z,22.57
2018-02-13T07:31:43.209Z,19.33
2018-02-13T07:34:09.224Z,19.70
2018-02-13T07:36:35.184Z,17.43
2018-02-13T07:39:01.214Z,18.60
2018-02-13T07:41:27.204Z,24.33
2018-02-13T07:43:53.272Z,19.07
2018-02-13T07:46:19.603Z,23.83
2018-02-13T07:48:46.038Z,22.23
2018-02-13T07:51:12.034Z,21.47
2018-02-13T07:53:38.013Z,21.57
2018-02-13T07:56:04.021Z,23.20
2018-02-13T07:58:29.992Z,24.57
2018-02-13T08:00:56.388Z,24.60
2018-02-13T08:03:22.429Z,23.97
2018-02-13T08:05:48.373Z,25.57
2018-02-13T08:08:14.374Z,23.00
2018-02-13T08:10:40.436Z,25.00
2018-02-13T08:13:06.449Z,24.50
2018-02-13T08:15:32.493Z,21.67
2018-02-13T08:17:58.505Z,17.67
2018-02-13T08:20:24.516Z,22.43
2018-02-13T08:22:50.522Z,18.93
2018-02-13T08:25:16.564Z,24.80
2018-02-13T08:27:42.587Z,20.60
2018-02-13T08:30:08.729Z,17.47
2018-02-13T08:32:34.721Z,24.13
2018-02-13T08:35:00.724Z,27.27
2018-02-13T08:37:26.722Z,26.17
2018-02-13T08:39:52.768Z,16.87
2018-02-13T08:42:18.824Z,21.40
2018-02-13T08:44:44.869Z,21.83
2018-02-13T08:47:10.908Z,21.30
2018-02-13T08:49:36.960Z,22.00
2018-02-13T08:52:03.011Z,20.13
2018-02-13T08:54:29.144Z,22.50
2018-02-13T08:56:55.145Z,23.57
2018-02-13T08:59:21.165Z,20.80
2018-02-13T09:01:47.157Z,20.37
2018-02-13T09:04:13.244Z,14.47
2018-02-13T09:06:39.222Z,14.90
2018-02-13T09:09:05.239Z,17.90
2018-02-13T09:11:31.284Z,32.03
2018-02-13T09:13:57.235Z,25.83
2018-02-13T09:16:23.250Z,15.07
2018-02-13T09:18:49.249Z,16.93
2018-02-13T09:21:15.291Z,17.10
2018-02-13T09:23:41.327Z,25.77
2018-02-13T09:26:07.336Z,28.30
2018-02-13T09:28:33.344Z,20.90
2018-02-13T09:30:59.333Z,23.27
2018-02-13T09:33:25.452Z,27.40
2018-02-13T09:35:51.435Z,25.40
2018-02-13T09:38:17.446Z,21.23
2018-02-13T09:40:43.492Z,23.50
2018-02-13T09:43:09.460Z,24.37
2018-02-13T09:45:35.469Z,21.33
2018-02-13T09:48:01.452Z,20.30
2018-02-13T09:50:27.449Z,25.57
2018-02-13T09:52:53.457Z,22.80
2018-02-13T09:55:19.453Z,25.67
2018-02-13T09:57:45.491Z,17.63
2018-02-13T10:00:11.553Z,20.93
2018-02-13T10:02:37.581Z,20.53
2018-02-13T10:05:03.592Z,23.07
2018-02-13T10:07:29.596Z,19.53
2018-02-13T10:09:55.610Z,19.60
2018-02-13T10:12:21.593Z,17.93
2018-02-13T10:14:47.650Z,18.10
2018-02-13T10:17:13.693Z,15.80
2018-02-13T10:19:39.736Z,17.73
2018-02-13T10:22:05.725Z,21.47
2018-02-13T10:24:31.737Z,17.13
2018-02-13T10:26:57.764Z,15.47
2018-02-13T10:29:23.825Z,16.93
2018-02-13T10:31:49.912Z,17.07
2018-02-13T10:34:15.933Z,15.97
2018-02-13T10:36:41.964Z,21.73
2018-02-13T10:39:07.964Z,18.77
2018-02-13T10:41:33.994Z,20.63
2018-02-13T10:44:00.027Z,15.50
2018-02-13T10:46:26.073Z,18.77
2018-02-13T10:48:52.018Z,21.00
2018-02-13T10:51:18.038Z,19.10
2018-02-13T10:53:44.022Z,21.00
2018-02-13T10:56:10.061Z,18.63
2018-02-13T10:58:36.080Z,16.60
2018-02-13T11:01:08.169Z,20.53
2018-02-13T11:03:34.253Z,21.63
2018-02-13T11:06:00.248Z,20.20
2018-02-13T11:08:26.272Z,17.33
2018-02-13T11:10:52.280Z,23.80
2018-02-13T11:13:18.310Z,28.43
2018-02-13T11:15:44.307Z,19.40
2018-02-13T11:18:10.310Z,20.40
2018-02-13T11:20:36.349Z,18.73
2018-02-13T11:23:02.320Z,20.10
2018-02-13T11:25:28.345Z,19.00
2018-02-13T11:27:54.333Z,17.93
2018-02-13T11:30:20.525Z,16.03
2018-02-13T11:32:46.541Z,17.13
2018-02-13T11:35:12.551Z,13.60
2018-02-13T11:37:38.525Z,17.30
2018-02-13T11:40:04.549Z,15.33
2018-02-13T11:42:30.641Z,21.23
2018-02-13T11:44:56.641Z,13.97
2018-02-13T11:47:22.677Z,18.83
2018-02-13T11:49:48.733Z,12.90
2018-02-13T11:52:14.837Z,15.93
2018-02-13T11:54:40.837Z,13.60
2018-02-13T11:57:06.937Z,19.60
2018-02-13T11:59:33.089Z,13.37
2018-02-13T12:01:59.125Z,13.27
2018-02-13T12:04:25.168Z,14.93
2018-02-13T12:06:51.133Z,14.77
2018-02-13T12:09:17.169Z,13.13
2018-02-13T12:11:43.197Z,11.27
2018-02-13T12:14:09.208Z,11.43
2018-02-13T12:16:35.229Z,16.87
2018-02-13T12:19:01.264Z,13.40
2018-02-13T12:21:27.292Z,11.37
2018-02-13T12:23:53.337Z,16.43
2018-02-13T12:26:19.346Z,14.77
2018-02-13T12:28:45.316Z,7.93
2018-02-13T12:31:11.421Z,21.47
2018-02-13T12:33:37.493Z,11.53
2018-02-13T12:36:03.463Z,14.23
2018-02-13T12:38:29.508Z,11.53
2018-02-13T12:40:55.550Z,11.53
2018-02-13T12:43:21.524Z,11.40
2018-02-13T12:45:47.534Z,13.27
2018-02-13T12:48:13.615Z,16.30
2018-02-13T12:50:39.597Z,12.40
2018-02-13T12:53:05.557Z,13.10
2018-02-13T12:55:31.536Z,14.73
2018-02-13T12:57:57.565Z,15.50
2018-02-13T13:00:23.673Z,14.30
2018-02-13T13:02:49.744Z,16.97
2018-02-13T13:05:15.788Z,11.33
2018-02-13T13:07:41.833Z,12.43
2018-02-13T13:10:07.854Z,13.67
2018-02-13T13:12:33.805Z,12.53
2018-02-13T13:14:59.875Z,14.20
2018-02-13T13:17:25.883Z,12.33
2018-02-13T13:19:51.953Z,12.90
2018-02-13T13:22:17.976Z,16.20
2018-02-13T13:24:44.006Z,15.67
2018-02-13T13:27:10.029Z,12.17
2018-02-13T13:29:36.056Z,23.23
2018-02-13T13:32:02.212Z,26.80
2018-02-13T13:34:28.256Z,20.90
2018-02-13T13:36:54.251Z,13.40
2018-02-13T13:39:20.276Z,12.67
2018-02-13T13:41:46.303Z,15.27
2018-02-13T13:44:12.389Z,11.40
2018-02-13T13:46:38.455Z,16.90
2018-02-13T13:49:04.938Z,16.40
2018-02-13T13:51:30.944Z,21.00
2018-02-13T13:53:56.992Z,16.33
2018-02-13T13:56:23.022Z,23.83
2018-02-13T13:58:49.036Z,15.40
2018-02-13T14:01:15.168Z,13.33
2018-02-13T14:03:41.240Z,9.90
2018-02-13T14:06:07.213Z,15.93
2018-02-13T14:08:33.283Z,12.83
2018-02-13T14:10:59.284Z,12.53
2018-02-13T14:13:25.366Z,12.90
2018-02-13T14:15:51.448Z,14.57
2018-02-13T14:18:17.473Z,16.40
2018-02-13T14:20:43.537Z,10.57
2018-02-13T14:23:09.570Z,16.13
2018-02-13T14:25:35.592Z,12.23
2018-02-13T14:28:01.538Z,11.20
2018-02-13T14:30:27.647Z,19.33
2018-02-13T14:32:53.650Z,12.40
2018-02-13T14:35:19.701Z,10.83
2018-02-13T14:37:45.676Z,11.50
2018-02-13T14:40:11.728Z,9.83
2018-02-13T14:42:37.735Z,11.03
2018-02-13T14:45:03.792Z,15.80
2018-02-13T14:47:29.814Z,15.73
2018-02-13T14:49:55.825Z,13.20
2018-02-13T14:52:21.836Z,19.63
2018-02-13T14:54:47.825Z,12.60
2018-02-13T14:57:13.845Z,12.10
2018-02-13T14:59:39.841Z,10.47
2018-02-13T15:02:05.915Z,15.10
2018-02-13T15:04:31.931Z,13.90
2018-02-13T15:06:58.017Z,17.30
2018-02-13T15:09:24.305Z,17.60
2018-02-13T15:11:50.292Z,12.90
2018-02-13T15:14:16.297Z,9.77
2018-02-13T15:19:46.070Z,12.20
2018-02-13T15:22:12.104Z,10.80
2018-02-13T15:24:38.126Z,15.60
2018-02-13T15:27:04.200Z,16.93
2018-02-13T15:29:30.213Z,13.40
2018-02-13T15:31:56.265Z,15.90
2018-02-13T15:34:22.294Z,12.30
2018-02-13T15:36:48.363Z,13.47
2018-02-13T15:39:14.441Z,11.57
2018-02-13T15:41:40.495Z,12.73
2018-02-13T15:44:06.541Z,12.63
2018-02-13T15:46:33.411Z,14.23
2018-02-13T15:48:59.453Z,13.40
2018-02-13T15:51:25.445Z,8.90
2018-02-13T15:53:51.532Z,11.83
2018-02-13T15:56:17.552Z,11.83
2018-02-13T15:58:43.574Z,14.10
2018-02-13T16:01:09.684Z,15.70
2018-02-13T16:03:35.675Z,14.90
2018-02-13T16:06:01.678Z,15.10
2018-02-13T16:08:27.668Z,12.57
2018-02-13T16:10:53.665Z,10.13
2018-02-13T16:13:19.681Z,13.17
2018-02-13T16:15:45.768Z,10.83
2018-02-13T16:18:11.804Z,9.80
2018-02-13T16:20:37.804Z,16.33
2018-02-13T16:23:03.837Z,16.00
2018-02-13T16:25:29.848Z,13.87
2018-02-13T16:27:55.802Z,11.43
2018-02-13T16:30:22.323Z,14.97
2018-02-13T16:32:48.312Z,14.03
2018-02-13T16:35:14.324Z,11.00
2018-02-13T16:37:40.365Z,13.60
2018-02-13T16:40:06.365Z,11.03
2018-02-13T16:42:32.485Z,16.23
2018-02-13T16:44:58.495Z,12.17
2018-02-13T16:47:24.560Z,9.80
2018-02-13T16:49:50.620Z,10.40
2018-02-13T16:52:16.633Z,11.17
2018-02-13T16:54:42.762Z,13.80
2018-02-13T16:57:08.760Z,16.47
2018-02-13T16:59:34.932Z,17.87
2018-02-13T17:02:01.000Z,15.80
2018-02-13T17:04:26.995Z,14.70
2018-02-13T17:06:53.063Z,18.30
2018-02-13T17:09:19.049Z,17.20
2018-02-13T17:11:45.042Z,15.70
2018-02-13T17:14:11.045Z,21.70
2018-02-13T17:16:37.046Z,26.30
2018-02-13T17:19:03.064Z,21.23
2018-02-13T17:21:29.125Z,27.90
2018-02-13T17:23:55.137Z,29.80
2018-02-13T17:26:21.132Z,23.20
2018-02-13T17:28:47.145Z,26.77
2018-02-13T17:31:13.193Z,29.83
2018-02-13T17:33:39.177Z,35.87
2018-02-13T17:36:05.310Z,31.53
2018-02-13T17:38:31.276Z,30.73
2018-02-13T17:40:57.291Z,37.83
2018-02-13T17:43:23.304Z,30.30
2018-02-13T17:45:49.341Z,34.00
2018-02-13T17:48:15.334Z,33.23
2018-02-13T17:50:41.391Z,26.70
2018-02-13T17:53:07.440Z,21.67
2018-02-13T17:55:33.478Z,26.83
2018-02-13T17:57:59.507Z,25.07
2018-02-13T18:00:25.613Z,31.63
2018-02-13T18:02:51.558Z,21.57
2018-02-13T18:05:17.537Z,33.10
2018-02-13T18:07:43.484Z,25.60
2018-02-13T18:10:09.572Z,25.33
2018-02-13T18:12:35.560Z,25.93
2018-02-13T18:15:01.600Z,23.27
2018-02-13T18:17:27.588Z,21.83
2018-02-13T18:19:53.513Z,26.60
2018-02-13T18:22:19.556Z,27.17
2018-02-13T18:24:45.618Z,23.10
2018-02-13T18:27:11.681Z,26.53
2018-02-13T18:29:37.746Z,27.13
2018-02-13T18:32:03.782Z,23.43
2018-02-13T18:34:29.882Z,25.40
2018-02-13T18:36:55.888Z,28.73
2018-02-13T18:39:21.912Z,29.07
2018-02-13T18:41:47.976Z,28.43
2018-02-13T18:44:13.995Z,32.30
2018-02-13T18:46:40.117Z,24.17
2018-02-13T18:49:06.124Z,25.40
2018-02-13T18:51:32.136Z,28.47
2018-02-13T18:53:58.149Z,23.80
2018-02-13T18:56:24.180Z,26.63
2018-02-13T18:58:50.212Z,29.03
2018-02-13T19:01:16.277Z,30.90
2018-02-13T19:03:42.285Z,29.20
2018-02-13T19:06:08.277Z,25.93
2018-02-13T19:08:34.286Z,28.93
2018-02-13T19:11:01.037Z,30.23
2018-02-13T19:13:27.129Z,29.30
2018-02-13T19:15:53.228Z,28.60
2018-02-13T19:18:19.234Z,32.63
2018-02-13T19:20:45.256Z,29.97
2018-02-13T19:23:11.315Z,27.77
2018-02-13T19:25:37.292Z,31.67
2018-02-13T19:28:03.333Z,32.13
2018-02-13T19:30:29.354Z,34.53
2018-02-13T19:32:55.357Z,29.37
2018-02-13T19:35:21.389Z,30.63
2018-02-13T19:37:47.487Z,26.77
2018-02-13T19:40:13.466Z,35.33
2018-02-13T19:42:39.552Z,37.53
2018-02-13T19:45:05.595Z,24.90
2018-02-13T19:47:31.610Z,27.93
2018-02-13T19:49:57.677Z,28.40
2018-02-13T19:52:23.758Z,29.40
2018-02-13T19:54:49.801Z,35.67
2018-02-13T19:57:15.825Z,24.20
2018-02-13T19:59:41.830Z,25.90
2018-02-13T20:02:07.855Z,26.60
2018-02-13T20:04:33.857Z,25.53
2018-02-13T20:06:59.867Z,24.57
2018-02-13T20:09:26.097Z,19.30
2018-02-13T20:11:52.096Z,19.00
2018-02-13T20:14:18.147Z,19.83
2018-02-13T20:16:44.158Z,21.50
2018-02-13T20:19:10.195Z,19.60
2018-02-13T20:21:36.237Z,22.00
2018-02-13T20:24:02.262Z,17.63
2018-02-13T20:26:28.280Z,21.37
2018-02-13T20:28:55.340Z,21.23
2018-02-13T20:31:21.365Z,22.47
2018-02-13T20:33:47.377Z,18.50
2018-02-13T20:36:13.397Z,17.60
2018-02-13T20:38:39.446Z,16.10
2018-02-13T20:41:06.477Z,36.77
2018-02-13T20:43:32.485Z,34.57
2018-02-13T20:45:58.479Z,24.40
2018-02-13T20:48:24.517Z,20.33
2018-02-13T20:50:51.464Z,12.73
2018-02-13T20:53:17.528Z,15.80
2018-02-13T20:55:43.537Z,15.10
2018-02-13T20:58:09.528Z,16.37
2018-02-13T21:00:35.565Z,14.30
2018-02-13T21:03:01.600Z,15.47
2018-02-13T21:05:27.604Z,21.63
2018-02-13T21:07:53.594Z,12.83
2018-02-13T21:10:19.617Z,16.90
2018-02-13T21:12:45.593Z,13.37
2018-02-13T21:15:11.549Z,19.70
2018-02-13T21:17:37.585Z,20.23
2018-02-13T21:20:03.550Z,22.43
2018-02-13T21:22:29.626Z,19.90
2018-02-13T21:24:55.630Z,19.90
2018-02-13T21:27:21.682Z,17.40
2018-02-13T21:29:47.714Z,25.47
2018-02-13T21:32:13.720Z,26.80
2018-02-13T21:34:39.761Z,21.20
2018-02-13T21:37:05.780Z,20.63
2018-02-13T21:39:31.790Z,23.10
2018-02-13T21:41:57.766Z,25.83
2018-02-13T21:44:23.787Z,27.73
2018-02-13T21:46:49.853Z,28.20
2018-02-13T21:49:15.852Z,28.80
2018-02-13T21:51:41.894Z,27.83
2018-02-13T21:54:08.000Z,21.40
2018-02-13T21:56:34.024Z,28.43
2018-02-13T21:59:00.076Z,20.70
2018-02-13T22:01:26.099Z,21.17
2018-02-13T22:03:52.101Z,17.63
2018-02-13T22:06:18.159Z,23.53
2018-02-13T22:08:44.192Z,22.37
2018-02-13T22:11:10.261Z,25.70
2018-02-13T22:13:36.304Z,34.37
2018-02-13T22:16:02.380Z,37.90
2018-02-13T22:18:28.322Z,31.70
2018-02-13T22:20:54.337Z,35.63
2018-02-13T22:23:20.373Z,32.63
2018-02-13T22:25:46.381Z,43.23
2018-02-13T22:28:12.432Z,27.50
2018-02-13T22:30:38.378Z,39.17
2018-02-13T22:33:04.412Z,38.17
2018-02-13T22:35:30.425Z,28.83
2018-02-13T22:37:56.433Z,28.33
2018-02-13T22:40:22.444Z,28.40
2018-02-13T22:42:48.449Z,33.50
2018-02-13T22:45:14.465Z,33.70
2018-02-13T22:47:40.515Z,24.60
2018-02-13T22:50:06.884Z,29.50
2018-02-13T22:52:32.841Z,22.20
2018-02-13T22:54:58.851Z,26.50
2018-02-13T22:57:24.923Z,15.40
2018-02-13T22:59:50.911Z,19.73
2018-02-13T23:02:16.917Z,18.23
2018-02-13T23:04:42.925Z,15.63
2018-02-13T23:07:08.937Z,14.23
2018-02-13T23:09:34.935Z,14.07
2018-02-13T23:12:00.964Z,15.43
2018-02-13T23:14:26.936Z,11.90
2018-02-13T23:16:52.914Z,11.63
2018-02-13T23:19:18.961Z,10.40
2018-02-13T23:21:44.992Z,9.10
2018-02-13T23:24:11.064Z,9.73
2018-02-13T23:26:37.060Z,9.23
2018-02-13T23:29:03.090Z,11.30
2018-02-13T23:31:29.238Z,10.70
2018-02-13T23:33:55.246Z,12.30
2018-02-13T23:36:21.232Z,10.57
2018-02-13T23:38:47.605Z,13.50
2018-02-13T23:41:13.570Z,8.27
2018-02-13T23:43:39.543Z,9.47
2018-02-13T23:46:05.593Z,18.33
2018-02-13T23:48:31.564Z,13.00
2018-02-13T23:50:57.637Z,10.80
2018-02-13T23:53:23.654Z,13.80
2018-02-13T23:55:49.653Z,19.07
2018-02-13T23:58:15.673Z,17.70
